Time;durP1;ratioP1;P1;durP2;ratioP2;P2;SDS_P1;SDS_P2;PMS_P1;PMS_P2;Temp;Humidity;BMP_temperature;BMP_pressure;BME280_temperature;BME280_humidity;BME280_pressure;Samples;Min_cycle;Max_cycle;Signal;HPM_P1;HPM_P2
2021/07/02 00:02:04;;;;;;;33.63;20.30;;;18.00;99.90;;;;;;5056218;28;20201;-64
2021/07/02 00:04:31;;;;;;;31.63;21.70;;;18.10;99.90;;;;;;5056550;28;20176;-63
2021/07/02 00:06:57;;;;;;;32.10;20.40;;;18.10;99.90;;;;;;5056538;28;20423;-63
2021/07/02 00:09:22;;;;;;;33.30;21.17;;;18.00;99.90;;;;;;5072172;28;20433;-63
2021/07/02 00:11:48;;;;;;;27.50;20.80;;;17.80;99.90;;;;;;5056465;28;20868;-63
2021/07/02 00:14:13;;;;;;;30.53;19.63;;;17.80;99.90;;;;;;5056279;28;20205;-64
2021/07/02 00:16:39;;;;;;;29.70;21.67;;;17.80;99.90;;;;;;5056178;28;20187;-63
2021/07/02 00:19:05;;;;;;;27.57;19.10;;;17.90;99.90;;;;;;5055268;28;20181;-64
2021/07/02 00:21:31;;;;;;;27.73;18.20;;;17.80;99.90;;;;;;5056173;28;20185;-63
2021/07/02 00:23:56;;;;;;;26.93;20.73;;;17.80;99.90;;;;;;5056125;28;20507;-67
2021/07/02 00:26:22;;;;;;;29.33;20.00;;;17.70;99.90;;;;;;5071821;28;20173;-67
2021/07/02 00:28:47;;;;;;;30.77;20.03;;;17.60;99.90;;;;;;5056036;28;20173;-67
2021/07/02 00:31:13;;;;;;;26.07;19.07;;;17.50;99.90;;;;;;5056142;28;20192;-67
2021/07/02 00:33:39;;;;;;;27.90;19.70;;;17.60;99.90;;;;;;5056067;28;20253;-67
2021/07/02 00:36:04;;;;;;;32.93;19.03;;;17.50;99.90;;;;;;5071815;28;20200;-67
2021/07/02 00:38:30;;;;;;;32.50;18.70;;;17.40;99.90;;;;;;5055696;28;20363;-68
2021/07/02 00:40:55;;;;;;;25.73;19.00;;;17.40;99.90;;;;;;5055935;28;20238;-67
2021/07/02 00:43:21;;;;;;;31.57;20.07;;;17.40;99.90;;;;;;5056117;28;20205;-67
2021/07/02 00:45:47;;;;;;;27.93;17.87;;;17.50;99.90;;;;;;5056154;28;20189;-66
2021/07/02 00:48:12;;;;;;;28.40;19.33;;;17.50;99.90;;;;;;5056269;28;20597;-65
2021/07/02 00:50:38;;;;;;;25.00;17.50;;;17.60;99.90;;;;;;5055837;28;20240;-67
2021/07/02 00:53:04;;;;;;;28.60;18.23;;;17.40;99.90;;;;;;5055616;28;20238;-67
2021/07/02 00:55:31;;;;;;;27.73;18.03;;;17.30;99.90;;;;;;5055820;28;20169;-67
2021/07/02 00:57:57;;;;;;;25.03;17.70;;;17.30;99.90;;;;;;5055704;28;20538;-67
2021/07/02 01:00:23;;;;;;;27.27;16.53;;;17.40;99.90;;;;;;5055779;28;20899;-67
2021/07/02 01:02:49;;;;;;;23.30;17.50;;;17.50;99.90;;;;;;5055667;28;20512;-67
2021/07/02 01:05:15;;;;;;;25.07;17.50;;;17.40;99.90;;;;;;5055661;28;20430;-67
2021/07/02 01:07:41;;;;;;;23.23;15.70;;;17.20;99.90;;;;;;5055836;28;20458;-67
2021/07/02 01:10:07;;;;;;;23.37;17.37;;;17.20;99.90;;;;;;5071217;28;20213;-66
2021/07/02 01:12:34;;;;;;;28.40;18.10;;;17.00;99.90;;;;;;5055315;28;20423;-67
2021/07/02 01:14:59;;;;;;;29.20;18.10;;;17.00;99.90;;;;;;5055445;28;20438;-66
2021/07/02 01:17:25;;;;;;;25.00;16.80;;;17.10;99.90;;;;;;5055162;28;20415;-66
2021/07/02 01:19:52;;;;;;;22.73;15.80;;;17.10;99.90;;;;;;5055057;28;20204;-66
2021/07/02 01:22:25;;;;;;;27.77;17.80;;;17.10;99.90;;;;;;5055187;28;20181;-66
2021/07/02 01:24:55;;;;;;;26.80;16.93;;;17.10;99.90;;;;;;5055108;28;20462;-66
2021/07/02 01:27:21;;;;;;;31.20;17.37;;;16.80;99.90;;;;;;5054931;28;20411;-66
2021/07/02 01:29:48;;;;;;;23.48;16.35;;;16.60;99.90;;;;;;5054888;28;20434;-66
2021/07/02 01:32:15;;;;;;;26.03;16.40;;;16.60;99.90;;;;;;5054904;28;20181;-66
2021/07/02 01:34:41;;;;;;;31.20;20.47;;;16.60;99.90;;;;;;5054813;28;20430;-65
2021/07/02 01:37:08;;;;;;;25.83;17.00;;;16.50;99.90;;;;;;5054710;28;20427;-65
2021/07/02 01:39:34;;;;;;;28.77;17.90;;;16.60;99.90;;;;;;5054897;28;20833;-65
2021/07/02 01:42:00;;;;;;;33.10;19.30;;;16.60;99.90;;;;;;5054655;28;20431;-65
2021/07/02 01:44:25;;;;;;;29.00;18.47;;;16.50;99.90;;;;;;5054588;28;20212;-65
2021/07/02 01:46:51;;;;;;;34.23;18.93;;;16.50;99.90;;;;;;5054454;28;20492;-65
2021/07/02 01:49:16;;;;;;;25.47;16.70;;;16.50;99.90;;;;;;5054522;28;20636;-65
2021/07/02 01:51:42;;;;;;;30.13;19.30;;;16.50;99.90;;;;;;5054441;28;20196;-66
2021/07/02 01:54:07;;;;;;;25.93;17.23;;;16.60;99.90;;;;;;5054327;28;20208;-66
2021/07/02 01:56:33;;;;;;;25.03;18.27;;;16.60;99.90;;;;;;5054394;28;20192;-66
2021/07/02 01:58:59;;;;;;;30.20;19.75;;;16.70;99.90;;;;;;5054342;28;20181;-66
2021/07/02 02:01:25;;;;;;;30.13;18.57;;;16.60;99.90;;;;;;5054190;28;20185;-66
2021/07/02 02:03:53;;;;;;;28.60;19.47;;;16.70;99.90;;;;;;5054225;28;20213;-66
2021/07/02 02:06:19;;;;;;;29.03;20.20;;;16.60;99.90;;;;;;5054368;28;20388;-66
2021/07/02 02:08:45;;;;;;;25.80;17.30;;;16.60;99.90;;;;;;5054061;28;20774;-68
2021/07/02 02:11:11;;;;;;;27.03;17.20;;;16.50;99.90;;;;;;5054295;28;20423;-68
2021/07/02 02:13:37;;;;;;;28.40;19.37;;;16.50;99.90;;;;;;5054084;28;20223;-66
2021/07/02 02:16:04;;;;;;;25.50;18.77;;;16.50;99.90;;;;;;5053984;28;20423;-63
2021/07/02 02:18:29;;;;;;;28.83;19.37;;;16.40;99.90;;;;;;5053840;28;20177;-63
2021/07/02 02:20:55;;;;;;;25.83;18.90;;;16.20;99.90;;;;;;5053999;28;20519;-63
2021/07/02 02:23:20;;;;;;;28.00;19.27;;;16.20;99.90;;;;;;5053724;28;20192;-64
2021/07/02 02:25:46;;;;;;;29.40;20.20;;;16.20;99.90;;;;;;5054373;28;20177;-63
2021/07/02 02:28:12;;;;;;;27.10;20.23;;;16.10;99.90;;;;;;5053714;28;20605;-63
2021/07/02 02:30:37;;;;;;;29.00;20.17;;;16.30;99.90;;;;;;5053765;28;20176;-63
2021/07/02 02:33:05;;;;;;;27.27;18.40;;;16.40;99.90;;;;;;5053903;28;20264;-63
2021/07/02 02:35:32;;;;;;;33.13;20.83;;;16.30;99.90;;;;;;5053819;28;20185;-63
2021/07/02 02:37:57;;;;;;;34.40;20.80;;;16.50;99.90;;;;;;5053696;28;20430;-64
2021/07/02 02:40:23;;;;;;;32.27;21.10;;;16.70;99.90;;;;;;5053576;28;20435;-66
2021/07/02 02:42:49;;;;;;;29.90;21.00;;;16.70;99.90;;;;;;5053413;28;20267;-65
2021/07/02 02:45:14;;;;;;;29.13;20.17;;;16.60;99.90;;;;;;5053408;28;20330;-65
2021/07/02 02:47:40;;;;;;;31.23;20.77;;;16.70;99.90;;;;;;5053367;28;20266;-65
2021/07/02 02:50:06;;;;;;;27.63;19.80;;;16.70;99.90;;;;;;5053273;28;20251;-65
2021/07/02 02:52:32;;;;;;;41.03;22.40;;;16.60;99.90;;;;;;5053322;28;20629;-64
2021/07/02 02:54:58;;;;;;;31.30;20.40;;;16.70;99.90;;;;;;5053437;28;20506;-64
2021/07/02 02:57:23;;;;;;;29.93;20.67;;;16.70;99.90;;;;;;5053324;28;20216;-65
2021/07/02 02:59:49;;;;;;;37.27;21.97;;;16.80;99.90;;;;;;5053077;28;20442;-65
2021/07/02 03:02:14;;;;;;;32.70;22.10;;;16.70;99.90;;;;;;5053577;28;20200;-65
2021/07/02 03:04:40;;;;;;;33.27;22.07;;;16.70;99.90;;;;;;5053404;28;20223;-65
2021/07/02 03:07:06;;;;;;;33.90;21.10;;;16.80;99.90;;;;;;5053232;28;20216;-65
2021/07/02 03:09:32;;;;;;;34.77;23.03;;;16.70;99.90;;;;;;5053431;28;20608;-65
2021/07/02 03:11:58;;;;;;;29.00;20.23;;;16.70;99.90;;;;;;5053246;28;20465;-65
2021/07/02 03:14:24;;;;;;;28.70;20.40;;;16.80;99.90;;;;;;5053106;28;20795;-66
2021/07/02 03:16:50;;;;;;;40.73;22.77;;;16.80;99.90;;;;;;5053122;28;20180;-66
2021/07/02 03:19:16;;;;;;;32.80;21.53;;;16.80;99.90;;;;;;5053065;28;20271;-67
2021/07/02 03:21:42;;;;;;;34.90;21.70;;;16.70;99.90;;;;;;5053117;28;20427;-66
2021/07/02 03:24:08;;;;;;;30.90;20.60;;;16.60;99.90;;;;;;5053047;28;20462;-67
2021/07/02 03:26:34;;;;;;;33.53;21.63;;;16.50;99.90;;;;;;5053007;28;20446;-66
2021/07/02 03:29:00;;;;;;;31.97;19.17;;;16.50;99.90;;;;;;5052920;28;20903;-66
2021/07/02 03:31:26;;;;;;;35.47;23.40;;;16.50;99.90;;;;;;5053148;28;20180;-66
2021/07/02 03:33:52;;;;;;;32.10;21.13;;;16.50;99.90;;;;;;5053092;28;20496;-66
2021/07/02 03:36:18;;;;;;;28.20;20.93;;;16.50;99.90;;;;;;5055323;28;20255;-66
2021/07/02 03:38:44;;;;;;;26.73;20.00;;;16.40;99.90;;;;;;5056834;28;20180;-67
2021/07/02 03:41:10;;;;;;;31.20;21.37;;;16.40;99.90;;;;;;5057440;28;20241;-66
2021/07/02 03:43:35;;;;;;;36.22;20.52;;;16.50;99.90;;;;;;5056910;28;20204;-65
2021/07/02 03:46:02;;;;;;;28.37;20.37;;;16.40;99.90;;;;;;5056968;28;20204;-66
2021/07/02 03:48:29;;;;;;;32.75;22.55;;;16.50;99.90;;;;;;5056669;28;20581;-67
2021/07/02 03:50:54;;;;;;;28.17;21.70;;;16.60;99.90;;;;;;5056810;28;20184;-65
2021/07/02 03:53:20;;;;;;;28.87;20.20;;;16.60;99.90;;;;;;5055681;28;20524;-65
2021/07/02 03:55:46;;;;;;;35.70;21.20;;;16.70;99.90;;;;;;5056860;28;20181;-65
2021/07/02 03:58:12;;;;;;;30.20;20.63;;;16.60;99.90;;;;;;5056392;28;20205;-67
2021/07/02 04:00:38;;;;;;;25.37;19.13;;;16.70;99.90;;;;;;5055515;28;20497;-66
2021/07/02 04:03:05;;;;;;;30.50;20.30;;;16.60;99.90;;;;;;5055345;28;20462;-68
2021/07/02 04:05:31;;;;;;;31.63;21.00;;;16.90;99.90;;;;;;5056498;28;20431;-66
2021/07/02 04:07:57;;;;;;;33.60;21.50;;;17.00;99.90;;;;;;5056262;28;20944;-67
2021/07/02 04:10:22;;;;;;;29.33;19.90;;;17.10;99.90;;;;;;5056222;28;20183;-66
2021/07/02 04:12:48;;;;;;;30.20;21.60;;;17.30;99.90;;;;;;5056310;28;20267;-66
2021/07/02 04:15:13;;;;;;;28.90;22.20;;;17.20;99.90;;;;;;5056275;28;20185;-66
2021/07/02 04:17:39;;;;;;;30.50;19.40;;;17.30;99.90;;;;;;5056407;28;20523;-65
2021/07/02 04:20:09;;;;;;;26.63;19.93;;;17.30;99.90;;;;;;5056431;28;20234;-65
2021/07/02 04:22:39;;;;;;;29.43;20.57;;;17.40;99.90;;;;;;5056468;28;20183;-65
2021/07/02 04:25:07;;;;;;;29.10;19.57;;;17.30;99.90;;;;;;5056006;28;20435;-65
2021/07/02 04:27:32;;;;;;;26.60;18.80;;;17.00;99.90;;;;;;5055907;28;20441;-66
2021/07/02 04:29:58;;;;;;;27.20;18.97;;;16.60;99.90;;;;;;5055907;28;20436;-66
2021/07/02 04:32:24;;;;;;;24.97;18.20;;;16.60;99.90;;;;;;5054938;28;20239;-65
2021/07/02 04:34:49;;;;;;;26.33;18.40;;;16.60;99.90;;;;;;5055808;28;20614;-64
2021/07/02 04:37:15;;;;;;;24.40;18.20;;;16.80;99.90;;;;;;5055707;28;20219;-66
2021/07/02 04:39:40;;;;;;;23.73;16.53;;;17.10;99.90;;;;;;5055802;28;20252;-66
2021/07/02 04:42:06;;;;;;;22.00;16.73;;;17.20;99.90;;;;;;5055652;28;20177;-65
2021/07/02 04:44:35;;;;;;;25.97;17.27;;;17.30;99.90;;;;;;5055690;28;20219;-66
2021/07/02 04:47:00;;;;;;;22.47;17.37;;;17.50;99.90;;;;;;5055705;28;20456;-65
2021/07/02 04:49:26;;;;;;;22.27;15.90;;;17.90;99.90;;;;;;5055602;28;20451;-66
2021/07/02 04:51:51;;;;;;;26.50;17.40;;;18.50;99.90;;;;;;5055642;28;20173;-66
2021/07/02 04:54:17;;;;;;;21.73;15.10;;;18.80;99.90;;;;;;5055556;28;20204;-66
2021/07/02 04:56:50;;;;;;;24.10;15.40;;;19.00;99.90;;;;;;5055328;28;20215;-67
2021/07/02 04:59:17;;;;;;;22.70;16.73;;;19.30;70.40;;;;;;5055279;28;20173;-66
2021/07/02 05:01:42;;;;;;;21.10;16.33;;;19.70;1.00;;;;;;5054934;28;20423;-66
2021/07/02 05:04:08;;;;;;;23.33;17.90;;;19.70;1.00;;;;;;5055163;28;20814;-66
2021/07/02 05:06:33;;;;;;;24.33;15.70;;;19.50;1.00;;;;;;5055190;28;20181;-67
2021/07/02 05:09:00;;;;;;;20.73;15.90;;;19.40;8.10;;;;;;5054988;28;20181;-66
2021/07/02 05:11:25;;;;;;;27.23;15.03;;;19.40;1.00;;;;;;5055209;28;20181;-66
2021/07/02 05:13:51;;;;;;;22.87;15.30;;;19.30;37.90;;;;;;5055206;28;20762;-66
2021/07/02 05:16:16;;;;;;;21.90;14.90;;;19.50;14.50;;;;;;5055063;28;20230;-66
2021/07/02 05:18:42;;;;;;;21.23;16.30;;;19.60;1.00;;;;;;5054839;28;20591;-66
2021/07/02 05:21:07;;;;;;;21.37;14.23;;;20.80;1.00;;;;;;5055010;28;20267;-66
2021/07/02 05:23:33;;;;;;;20.37;13.90;;;21.30;60.50;;;;;;5053908;28;20215;-66
2021/07/02 05:25:59;;;;;;;17.20;13.50;;;20.80;99.90;;;;;;5054950;28;20173;-66
2021/07/02 05:28:25;;;;;;;23.07;15.77;;;21.10;99.90;;;;;;5054900;28;20228;-66
2021/07/02 05:30:51;;;;;;;20.23;14.70;;;22.00;51.20;;;;;;5054954;28;20419;-66
2021/07/02 05:33:16;;;;;;;18.50;13.73;;;22.30;1.00;;;;;;5055250;28;20806;-66
2021/07/02 05:35:42;;;;;;;19.87;13.83;;;21.90;99.90;;;;;;5054951;28;20518;-66
2021/07/02 05:38:07;;;;;;;16.47;13.70;;;20.60;99.90;;;;;;5054474;28;20588;-66
2021/07/02 05:40:33;;;;;;;19.20;14.60;;;19.90;1.00;;;;;;5054685;28;20250;-66
2021/07/02 05:42:58;;;;;;;19.17;15.50;;;19.60;1.00;;;;;;5054724;28;20322;-66
2021/07/02 05:45:24;;;;;;;22.33;14.73;;;19.10;1.00;;;;;;5054551;28;20186;-65
2021/07/02 05:47:51;;;;;;;22.73;15.10;;;18.50;99.90;;;;;;5057980;28;20616;-65
2021/07/02 05:50:18;;;;;;;21.07;15.87;;;18.50;99.90;;;;;;5073989;28;20191;-65
2021/07/02 05:52:45;;;;;;;17.73;15.33;;;18.30;99.90;;;;;;5074192;28;20445;-64
2021/07/02 05:55:12;;;;;;;17.50;14.10;;;18.10;99.90;;;;;;5074324;28;20753;-64
2021/07/02 05:57:41;;;;;;;19.97;14.80;;;17.90;99.90;;;;;;5072743;28;20434;-64
2021/07/02 06:00:08;;;;;;;20.13;15.23;;;17.90;99.90;;;;;;5074006;28;20414;-67
2021/07/02 06:02:34;;;;;;;20.97;16.07;;;18.00;99.90;;;;;;5074200;28;20816;-65
2021/07/02 06:04:59;;;;;;;20.00;15.60;;;18.30;99.90;;;;;;5074414;28;20469;-64
2021/07/02 06:07:25;;;;;;;19.80;15.43;;;18.20;99.90;;;;;;5074615;28;20210;-66
2021/07/02 06:09:50;;;;;;;17.93;14.17;;;18.10;99.90;;;;;;5073409;28;20184;-67
2021/07/02 06:12:16;;;;;;;23.43;14.50;;;18.10;99.90;;;;;;5074778;28;20176;-68
2021/07/02 06:14:42;;;;;;;19.73;15.33;;;18.00;99.90;;;;;;5074716;28;20184;-68
2021/07/02 06:17:07;;;;;;;23.27;14.30;;;17.90;99.90;;;;;;5074677;28;20337;-68
2021/07/02 06:19:33;;;;;;;20.83;14.80;;;18.10;99.90;;;;;;5073979;28;20229;-68
2021/07/02 06:21:59;;;;;;;20.27;14.87;;;18.30;99.90;;;;;;5074735;28;20180;-69
2021/07/02 06:24:24;;;;;;;19.23;14.43;;;18.50;99.90;;;;;;5074470;28;20204;-68
2021/07/02 06:26:50;;;;;;;18.90;13.67;;;18.50;99.90;;;;;;5074213;28;20609;-68
2021/07/02 06:29:15;;;;;;;20.00;14.60;;;18.80;99.20;;;;;;5074141;28;20183;-68
2021/07/02 06:31:41;;;;;;;20.17;13.50;;;18.70;76.50;;;;;;5074209;28;20473;-68
2021/07/02 06:34:06;;;;;;;16.57;13.27;;;18.90;85.80;;;;;;5074293;28;20208;-69
2021/07/02 06:36:33;;;;;;;17.00;14.20;;;19.10;15.30;;;;;;5074514;28;20576;-68
2021/07/02 06:38:58;;;;;;;22.60;13.40;;;18.80;1.00;;;;;;5073079;28;20208;-69
2021/07/02 06:41:24;;;;;;;17.70;13.27;;;18.80;59.90;;;;;;5073969;28;20449;-64
2021/07/02 06:43:49;;;;;;;20.63;13.97;;;19.10;50.50;;;;;;5072108;28;20204;-67
2021/07/02 06:46:15;;;;;;;21.47;15.47;;;20.10;1.00;;;;;;5064984;28;20280;-66
2021/07/02 06:48:40;;;;;;;16.47;12.50;;;21.10;99.90;;;;;;5058296;28;20267;-66
2021/07/02 06:51:06;;;;;;;14.57;12.00;;;21.50;1.00;;;;;;5073367;28;20542;-67
2021/07/02 06:53:31;;;;;;;25.20;13.03;;;21.30;77.40;;;;;;5073664;28;20586;-67
2021/07/02 06:55:57;;;;;;;17.83;13.17;;;21.60;1.00;;;;;;5073684;28;20184;-66
2021/07/02 06:58:23;;;;;;;15.20;13.00;;;21.20;50.10;;;;;;5072453;28;20192;-66
2021/07/02 07:00:48;;;;;;;17.10;13.30;;;21.30;1.00;;;;;;5072915;28;20263;-66
2021/07/02 07:03:14;;;;;;;17.90;12.80;;;21.80;1.00;;;;;;5073053;28;20196;-66
2021/07/02 07:05:40;;;;;;;15.77;13.30;;;21.70;1.00;;;;;;5072678;28;20554;-66
2021/07/02 07:08:08;;;;;;;18.10;13.67;;;21.30;1.00;;;;;;5071476;28;20172;-67
2021/07/02 07:10:35;;;;;;;19.80;14.43;;;21.40;1.00;;;;;;5075891;28;20461;-67
2021/07/02 07:13:01;;;;;;;15.37;12.80;;;21.70;1.00;;;;;;5077132;28;20430;-67
2021/07/02 07:15:26;;;;;;;15.60;13.90;;;21.80;99.90;;;;;;5077149;28;20925;-67
2021/07/02 07:17:53;;;;;;;18.40;14.90;;;21.70;99.90;;;;;;5077176;28;20445;-67
2021/07/02 07:20:19;;;;;;;17.87;14.90;;;20.80;99.90;;;;;;5075058;28;20194;-67
2021/07/02 07:22:46;;;;;;;17.77;14.17;;;20.60;99.90;;;;;;5077149;28;20445;-66
2021/07/02 07:25:12;;;;;;;20.47;14.43;;;20.60;99.90;;;;;;5076853;28;20462;-67
2021/07/02 07:27:38;;;;;;;14.73;13.10;;;21.30;99.90;;;;;;5073962;28;20434;-66
2021/07/02 07:30:06;;;;;;;19.00;13.87;;;21.70;1.00;;;;;;5075667;28;20943;-67
2021/07/02 07:32:33;;;;;;;16.20;12.80;;;22.80;99.90;;;;;;5076979;28;20454;-66
2021/07/02 07:35:01;;;;;;;16.30;12.73;;;23.30;1.00;;;;;;5074259;28;20532;-66
2021/07/02 07:37:29;;;;;;;15.23;11.17;;;22.10;1.00;;;;;;5076317;28;20430;-66
2021/07/02 07:39:55;;;;;;;13.70;12.20;;;22.20;1.00;;;;;;5076368;28;20434;-65
2021/07/02 07:42:21;;;;;;;16.37;12.90;;;22.40;1.00;;;;;;5076427;28;20430;-65
2021/07/02 07:44:46;;;;;;;18.17;13.57;;;22.00;99.90;;;;;;5076281;28;20207;-66
2021/07/02 07:47:12;;;;;;;15.03;12.13;;;21.30;1.00;;;;;;5075188;28;20187;-66
2021/07/02 07:49:38;;;;;;;16.20;13.23;;;21.20;97.80;;;;;;5075919;28;20173;-66
2021/07/02 07:54:30;;;;;;;17.53;13.03;;;20.60;99.90;;;;;;5076468;28;20430;-66
2021/07/02 07:56:56;;;;;;;14.03;12.33;;;21.10;99.90;;;;;;5076151;28;20459;-66
2021/07/02 07:59:26;;;;;;;16.23;12.13;;;21.20;99.90;;;;;;5076132;28;20620;-66
2021/07/02 08:01:51;;;;;;;21.43;14.97;;;21.50;99.90;;;;;;5075901;28;20822;-66
2021/07/02 08:04:17;;;;;;;15.83;11.90;;;21.80;1.00;;;;;;5075826;28;20969;-65
2021/07/02 08:06:44;;;;;;;13.13;10.90;;;22.30;99.90;;;;;;5075682;28;20516;-68
2021/07/02 08:09:11;;;;;;;13.33;11.50;;;22.60;1.00;;;;;;5075730;28;20253;-67
2021/07/02 08:11:38;;;;;;;16.23;11.33;;;22.60;1.00;;;;;;5074005;28;20895;-67
2021/07/02 08:14:05;;;;;;;13.00;11.03;;;22.70;1.00;;;;;;5073331;28;20887;-65
2021/07/02 08:16:30;;;;;;;15.10;12.03;;;23.00;1.00;;;;;;5075865;28;20972;-68
2021/07/02 08:18:56;;;;;;;18.23;10.70;;;22.50;99.90;;;;;;5075573;28;20455;-67
2021/07/02 08:21:22;;;;;;;17.33;11.17;;;23.10;1.00;;;;;;5075094;28;20208;-67
2021/07/02 08:23:47;;;;;;;15.33;12.63;;;23.00;1.00;;;;;;5076026;28;20286;-67
2021/07/02 08:26:13;;;;;;;16.93;12.80;;;22.80;99.90;;;;;;5076138;28;20267;-68
2021/07/02 08:31:23;;;;;;;17.53;12.63;;;21.70;99.90;;;;;;5075552;28;20190;-68
2021/07/02 08:33:49;;;;;;;21.60;13.63;;;21.60;1.00;;;;;;5075824;28;20521;-67
2021/07/02 08:36:15;;;;;;;20.50;12.50;;;21.70;1.00;;;;;;5075849;28;20426;-69
2021/07/02 08:38:40;;;;;;;16.17;12.43;;;21.50;1.00;;;;;;5075804;28;20555;-68
2021/07/02 08:41:11;;;;;;;17.10;12.87;;;21.40;1.00;;;;;;5075834;28;20829;-68
2021/07/02 08:43:37;;;;;;;15.43;13.80;;;21.20;1.00;;;;;;5075413;28;20203;-69
2021/07/02 08:46:03;;;;;;;18.37;13.03;;;21.50;1.00;;;;;;5075580;28;20429;-70
2021/07/02 08:48:29;;;;;;;15.20;12.20;;;21.70;1.00;;;;;;5074173;28;20466;-69
2021/07/02 08:50:55;;;;;;;15.93;12.30;;;22.20;1.00;;;;;;5075350;28;20444;-69
2021/07/02 08:53:21;;;;;;;16.00;12.70;;;22.70;99.90;;;;;;5072916;28;20901;-69
2021/07/02 08:55:48;;;;;;;16.80;12.10;;;22.90;99.90;;;;;;5075315;28;20183;-67
2021/07/02 08:58:15;;;;;;;15.20;11.60;;;22.60;1.00;;;;;;5074832;28;20491;-66
2021/07/02 09:00:45;;;;;;;17.57;12.80;;;22.20;99.90;;;;;;5074801;28;20507;-66
2021/07/02 09:03:27;;;;;;;12.43;10.97;;;22.30;1.00;;;;;;5074704;28;20457;-67
2021/07/02 09:05:53;;;;;;;14.57;12.80;;;22.50;69.80;;;;;;5073837;28;20465;-67
2021/07/02 09:08:19;;;;;;;15.20;11.13;;;22.60;73.80;;;;;;5075159;28;20422;-67
2021/07/02 09:10:46;;;;;;;14.97;11.00;;;22.70;50.40;;;;;;5075213;28;20761;-67
2021/07/02 09:13:12;;;;;;;14.07;10.57;;;22.80;99.90;;;;;;5074647;28;20434;-66
2021/07/02 09:15:49;;;;;;;12.83;10.53;;;23.20;1.00;;;;;;5075135;28;20445;-66
2021/07/02 09:18:16;;;;;;;14.90;10.80;;;23.70;1.00;;;;;;5074666;28;20422;-66
2021/07/02 09:20:43;;;;;;;13.40;10.53;;;23.90;99.90;;;;;;5075331;28;20425;-67
2021/07/02 09:23:11;;;;;;;11.90;10.30;;;23.10;99.90;;;;;;5074417;28;20489;-66
2021/07/02 09:25:52;;;;;;;13.40;10.20;;;22.20;99.90;;;;;;5074231;28;20445;-63
2021/07/02 09:28:19;;;;;;;18.03;12.67;;;22.00;1.00;;;;;;5074462;28;20426;-63
2021/07/02 09:30:50;;;;;;;11.87;10.63;;;21.70;43.80;;;;;;5073614;28;20757;-62
2021/07/02 09:33:21;;;;;;;15.30;11.40;;;21.50;99.90;;;;;;5073313;28;20453;-63
2021/07/02 09:35:53;;;;;;;12.80;10.93;;;21.50;99.90;;;;;;5074457;28;20775;-64
2021/07/02 09:38:34;;;;;;;14.60;11.63;;;21.80;99.90;;;;;;5074419;28;20437;-67
2021/07/02 09:41:00;;;;;;;10.40;9.30;;;22.00;1.00;;;;;;5072822;28;20450;-63
2021/07/02 09:43:27;;;;;;;16.00;9.70;;;22.30;1.00;;;;;;5074331;28;20555;-63
2021/07/02 09:46:04;;;;;;;12.40;9.60;;;22.30;1.00;;;;;;5074709;28;20467;-63
2021/07/02 09:48:32;;;;;;;13.00;10.17;;;22.40;1.00;;;;;;5074043;28;20419;-64
2021/07/02 09:51:02;;;;;;;10.90;9.20;;;22.80;1.00;;;;;;5074559;28;20978;-64
2021/07/02 09:53:32;;;;;;;13.13;9.00;;;23.30;1.00;;;;;;5074145;28;20446;-64
2021/07/02 09:55:59;;;;;;;13.20;9.73;;;23.60;99.90;;;;;;5074312;28;20445;-64
2021/07/02 09:58:34;;;;;;;11.53;9.40;;;23.80;99.90;;;;;;5074200;28;20430;-64
2021/07/02 10:01:01;;;;;;;12.63;9.00;;;23.10;99.90;;;;;;5074312;28;20430;-64
2021/07/02 10:03:35;;;;;;;10.97;8.20;;;22.60;1.00;;;;;;5074015;28;20781;-64
2021/07/02 10:06:03;;;;;;;11.10;8.50;;;22.80;1.00;;;;;;5074072;28;20423;-65
2021/07/02 10:08:34;;;;;;;10.20;8.47;;;23.00;99.90;;;;;;5073753;28;20427;-65
2021/07/02 10:11:02;;;;;;;9.80;7.83;;;23.10;1.00;;;;;;5072864;28;20473;-70
2021/07/02 10:13:34;;;;;;;9.80;8.87;;;23.50;81.60;;;;;;5073936;28;20419;-66
2021/07/02 10:16:01;;;;;;;10.03;8.27;;;24.00;99.90;;;;;;5074129;28;20866;-65
2021/07/02 10:18:29;;;;;;;8.57;7.50;;;23.60;99.90;;;;;;5073816;28;20430;-66
2021/07/02 10:20:56;;;;;;;10.00;7.80;;;23.40;1.00;;;;;;5073925;28;20762;-65
2021/07/02 10:23:26;;;;;;;8.90;7.57;;;23.50;99.90;;;;;;5073966;28;20450;-64
2021/07/02 10:25:53;;;;;;;8.40;7.03;;;23.50;99.90;;;;;;5073677;28;20419;-65
2021/07/02 10:28:21;;;;;;;10.17;7.63;;;23.00;1.00;;;;;;5073592;28;20871;-65
2021/07/02 10:30:47;;;;;;;8.43;7.63;;;23.00;1.00;;;;;;5074056;28;20431;-68
2021/07/02 10:33:14;;;;;;;8.47;6.90;;;23.60;1.00;;;;;;5073836;28;20435;-69
2021/07/02 10:35:44;;;;;;;9.83;6.53;;;23.80;99.90;;;;;;5073760;28;20422;-70
2021/07/02 10:38:10;;;;;;;8.97;8.07;;;23.50;99.90;;;;;;5073567;28;20906;-70
2021/07/02 10:40:38;;;;;;;8.57;6.90;;;23.20;1.00;;;;;;5073464;28;20950;-69
2021/07/02 10:43:18;;;;;;;8.20;7.07;;;22.50;56.60;;;;;;5073665;28;20422;-66
2021/07/02 10:46:08;;;;;;;9.10;6.57;;;22.60;99.90;;;;;;5073720;28;20511;-66
2021/07/02 10:49:10;;;;;;;7.57;6.00;;;22.80;99.90;;;;;;5071535;28;20444;-67
2021/07/02 10:51:36;;;;;;;9.07;7.80;;;22.40;1.00;;;;;;5071444;28;20426;-67
2021/07/02 10:54:32;;;;;;;9.70;6.50;;;22.50;1.00;;;;;;5072864;28;20446;-67
2021/07/02 10:57:06;;;;;;;13.50;7.70;;;22.60;99.90;;;;;;5073228;28;21002;-67
2021/07/02 10:59:35;;;;;;;8.13;6.97;;;22.70;99.90;;;;;;5073316;28;20434;-67
2021/07/02 11:02:18;;;;;;;8.63;7.20;;;22.90;99.90;;;;;;5073501;28;20434;-66
2021/07/02 11:04:49;;;;;;;8.20;7.27;;;23.20;99.90;;;;;;5073637;28;20469;-70
2021/07/02 11:07:14;;;;;;;8.80;7.67;;;23.20;1.00;;;;;;5073531;28;20800;-71
2021/07/02 11:09:52;;;;;;;8.83;7.17;;;23.00;99.90;;;;;;5073591;28;20430;-70
2021/07/02 11:12:27;;;;;;;7.60;6.00;;;23.10;1.00;;;;;;5073463;28;20172;-69
2021/07/02 11:14:53;;;;;;;7.67;6.13;;;23.20;1.00;;;;;;5073309;28;20429;-72
2021/07/02 11:17:30;;;;;;;7.97;6.37;;;23.60;99.90;;;;;;5073170;28;20428;-70
2021/07/02 11:20:11;;;;;;;10.33;5.90;;;24.00;1.00;;;;;;5072842;28;20626;-70
2021/07/02 11:22:37;;;;;;;13.90;10.13;;;24.00;99.90;;;;;;5073086;28;20419;-69
2021/07/02 11:25:13;;;;;;;7.33;5.93;;;23.70;1.00;;;;;;5073122;28;20470;-69
2021/07/02 11:27:44;;;;;;;8.20;6.30;;;23.70;1.00;;;;;;5073283;28;20183;-70
2021/07/02 11:33:04;;;;;;;8.13;6.13;;;24.30;1.00;;;;;;5073225;28;20418;-70
2021/07/02 11:35:44;;;;;;;7.60;5.70;;;24.50;1.00;;;;;;5073066;28;20419;-71
2021/07/02 11:38:13;;;;;;;8.73;5.80;;;24.30;99.90;;;;;;5073075;28;20467;-70
2021/07/02 11:40:46;;;;;;;7.13;5.83;;;23.80;1.00;;;;;;5072879;28;20881;-70
2021/07/02 11:43:16;;;;;;;8.90;6.30;;;24.00;1.00;;;;;;5071791;28;20430;-69
2021/07/02 11:45:53;;;;;;;6.03;5.43;;;24.00;1.00;;;;;;5073092;28;20437;-70
2021/07/02 11:48:21;;;;;;;9.07;6.40;;;24.10;1.00;;;;;;5073079;28;20449;-68
2021/07/02 11:50:52;;;;;;;5.80;5.20;;;24.00;1.00;;;;;;5073096;28;20445;-68
2021/07/02 11:53:34;;;;;;;7.50;5.90;;;23.80;1.00;;;;;;5072843;28;20460;-69
2021/07/02 11:56:07;;;;;;;6.37;5.03;;;24.00;1.00;;;;;;5071983;28;20426;-69
2021/07/02 11:58:37;;;;;;;8.77;6.00;;;24.80;99.90;;;;;;5076561;28;20456;-70
2021/07/02 12:01:12;;;;;;;6.53;5.87;;;25.20;99.90;;;;;;5076469;28;20430;-70
2021/07/02 12:03:47;;;;;;;7.37;6.70;;;24.80;99.90;;;;;;5077694;28;20465;-73
2021/07/02 12:06:42;;;;;;;6.20;5.60;;;25.00;99.90;;;;;;5076548;28;20429;-69
2021/07/02 12:09:13;;;;;;;6.03;5.43;;;24.80;99.90;;;;;;5076305;28;20449;-68
2021/07/02 12:11:42;;;;;;;6.27;5.10;;;24.50;99.90;;;;;;5076564;28;20513;-68
2021/07/02 12:14:10;;;;;;;5.70;5.07;;;24.20;99.90;;;;;;5076564;28;20422;-69
2021/07/02 12:16:38;;;;;;;6.83;5.63;;;24.00;99.90;;;;;;5076237;28;20419;-70
2021/07/02 12:19:17;;;;;;;7.67;5.60;;;24.40;99.90;;;;;;5076443;28;20480;-68
2021/07/02 12:22:06;;;;;;;6.03;4.50;;;24.40;99.90;;;;;;5076343;28;20876;-69
2021/07/02 12:24:36;;;;;;;6.80;4.90;;;24.20;99.90;;;;;;5076827;28;20469;-68
2021/07/02 12:27:14;;;;;;;7.53;5.40;;;23.60;1.00;;;;;;5075966;28;20426;-66
2021/07/02 12:29:44;;;;;;;7.50;5.97;;;23.60;1.00;;;;;;5076193;28;20771;-68
2021/07/02 12:32:16;;;;;;;7.43;5.40;;;24.00;1.00;;;;;;5075135;28;20950;-68
2021/07/02 12:34:44;;;;;;;6.47;5.40;;;24.10;99.90;;;;;;5076185;28;20897;-67
2021/07/02 12:37:11;;;;;;;7.07;6.37;;;24.00;1.00;;;;;;5075563;28;20430;-68
2021/07/02 12:39:42;;;;;;;8.67;5.77;;;23.90;1.00;;;;;;5076088;28;20434;-69
2021/07/02 12:42:24;;;;;;;6.30;5.57;;;23.70;1.00;;;;;;5075662;28;20426;-69
2021/07/02 12:44:56;;;;;;;6.90;5.50;;;23.70;1.00;;;;;;5076111;28;20937;-68